createdAt,value
2019-01-31T00:00:14.749Z,43.23
2019-01-31T00:01:10.041Z,41.93
2019-01-31T00:02:04.563Z,40.57
2019-01-31T00:02:53.365Z,40.67
2019-01-31T00:03:30.316Z,41.37
2019-01-31T00:04:30.745Z,45.30
2019-01-31T00:05:23.521Z,43.50
2019-01-31T00:06:06.664Z,42.40
2019-01-31T00:07:04.086Z,45.00
2019-01-31T00:08:07.516Z,41.50
2019-01-31T00:08:56.088Z,42.53
2019-01-31T00:09:41.900Z,43.47
2019-01-31T00:10:49.944Z,42.70
2019-01-31T00:11:35.675Z,43.57
2019-01-31T00:12:29.348Z,44.07
2019-01-31T00:13:24.452Z,43.63
2019-01-31T00:14:16.469Z,43.93
2019-01-31T00:14:58.995Z,45.03
2019-01-31T00:16:04.223Z,44.33
2019-01-31T00:17:01.963Z,39.80
2019-01-31T00:17:48.393Z,41.40
2019-01-31T00:18:25.321Z,42.67
2019-01-31T00:19:32.349Z,45.00
2019-01-31T00:20:16.279Z,40.20
2019-01-31T00:21:01.986Z,44.27
2019-01-31T00:21:47.694Z,44.77
2019-01-31T00:22:55.550Z,46.33
2019-01-31T00:23:40.937Z,42.13
2019-01-31T00:24:26.631Z,45.57
2019-01-31T00:25:20.138Z,46.10
2019-01-31T00:26:25.496Z,45.23
2019-01-31T00:27:20.415Z,44.20
2019-01-31T00:28:13.428Z,43.60
2019-01-31T00:29:01.970Z,43.07
2019-01-31T00:29:41.367Z,45.13
2019-01-31T00:30:49.489Z,47.30
2019-01-31T00:32:03.983Z,45.70
2019-01-31T00:32:46.315Z,42.90
2019-01-31T00:33:29.291Z,45.43
2019-01-31T00:34:32.018Z,43.17
2019-01-31T00:35:32.791Z,44.10
2019-01-31T00:36:33.701Z,43.63
2019-01-31T00:37:31.945Z,43.03
2019-01-31T00:38:17.094Z,44.63
2019-01-31T00:39:10.937Z,46.37
2019-01-31T00:40:19.216Z,47.80
2019-01-31T00:41:14.208Z,46.43
2019-01-31T00:41:51.097Z,45.47
2019-01-31T00:42:51.678Z,48.87
2019-01-31T00:43:46.456Z,46.97
2019-01-31T00:44:34.965Z,44.60
2019-01-31T00:45:18.047Z,57.30
2019-01-31T00:46:17.129Z,63.90
2019-01-31T00:47:02.870Z,62.10
2019-01-31T00:48:01.929Z,59.53
2019-01-31T00:49:07.716Z,52.93
2019-01-31T00:49:47.258Z,50.80
2019-01-31T00:50:38.808Z,56.10
2019-01-31T00:51:35.070Z,56.00
2019-01-31T00:52:14.732Z,52.13
2019-01-31T00:53:12.252Z,53.60
2019-01-31T00:54:09.952Z,51.57
2019-01-31T00:54:52.881Z,52.27
2019-01-31T00:55:35.314Z,53.93
2019-01-31T00:56:34.631Z,55.07
2019-01-31T00:57:14.463Z,50.23
2019-01-31T00:58:18.677Z,54.07
2019-01-31T00:59:22.815Z,48.80
2019-01-31T01:00:17.831Z,48.37
2019-01-31T01:01:12.612Z,50.17
2019-01-31T01:01:54.999Z,56.23
2019-01-31T01:02:40.644Z,55.27
2019-01-31T01:03:29.339Z,51.23
2019-01-31T01:04:31.806Z,50.30
2019-01-31T01:05:28.292Z,48.57
2019-01-31T01:06:19.981Z,49.53
2019-01-31T01:07:17.082Z,48.43
2019-01-31T01:08:02.503Z,47.87
2019-01-31T01:08:39.345Z,50.27
2019-01-31T01:09:28.620Z,51.43
2019-01-31T01:10:28.184Z,49.90
2019-01-31T01:11:25.950Z,44.50
2019-01-31T01:12:34.201Z,44.17
2019-01-31T01:13:22.772Z,45.83
2019-01-31T01:14:17.294Z,47.57
2019-01-31T01:14:57.265Z,48.33
2019-01-31T01:15:36.734Z,50.13
2019-01-31T01:16:22.219Z,49.33
2019-01-31T01:17:11.197Z,47.67
2019-01-31T01:17:48.122Z,46.80
2019-01-31T01:18:37.130Z,49.30
2019-01-31T01:19:41.020Z,45.93
2019-01-31T01:20:23.926Z,43.80
2019-01-31T01:21:38.052Z,47.97
2019-01-31T01:22:23.257Z,44.37
2019-01-31T01:23:11.722Z,45.47
2019-01-31T01:24:21.727Z,46.77
2019-01-31T01:25:36.211Z,43.83
2019-01-31T01:26:21.990Z,43.63
2019-01-31T01:27:10.788Z,43.90
2019-01-31T01:27:53.446Z,46.33
2019-01-31T01:28:47.768Z,48.70
2019-01-31T01:29:30.793Z,47.17
2019-01-31T01:30:34.611Z,46.80
2019-01-31T01:31:26.347Z,45.23
2019-01-31T01:32:23.447Z,42.33
2019-01-31T01:33:18.444Z,44.13
2019-01-31T01:34:15.166Z,46.73
2019-01-31T01:35:18.441Z,46.13
2019-01-31T01:35:58.574Z,44.60
2019-01-31T01:36:59.440Z,47.67
2019-01-31T01:37:41.879Z,45.53
2019-01-31T01:38:51.678Z,48.50
2019-01-31T01:39:31.939Z,44.40
2019-01-31T01:40:42.195Z,46.90
2019-01-31T01:41:39.773Z,45.77
2019-01-31T01:42:40.391Z,46.97
2019-01-31T01:43:41.035Z,44.43
2019-01-31T01:44:24.075Z,45.03
2019-01-31T01:45:17.258Z,45.40
2019-01-31T01:46:11.966Z,44.27
2019-01-31T01:47:13.803Z,46.17
2019-01-31T01:47:53.473Z,45.57
2019-01-31T01:48:33.434Z,49.57
2019-01-31T01:49:21.986Z,49.77
2019-01-31T01:50:18.256Z,51.50
2019-01-31T01:51:24.786Z,46.80
2019-01-31T01:52:24.288Z,46.83
2019-01-31T01:53:19.298Z,45.37
2019-01-31T01:54:19.885Z,44.50
2019-01-31T01:55:11.370Z,42.83
2019-01-31T01:56:10.537Z,44.13
2019-01-31T01:57:08.539Z,42.33
2019-01-31T01:58:03.352Z,43.93
2019-01-31T01:59:01.874Z,45.33
2019-01-31T02:00:02.818Z,42.57
2019-01-31T02:00:56.030Z,44.50
2019-01-31T02:02:04.282Z,45.27
2019-01-31T02:03:09.747Z,43.20
2019-01-31T02:03:58.698Z,43.73
2019-01-31T02:05:04.906Z,81.23
2019-01-31T02:05:53.713Z,60.03
2019-01-31T02:06:57.517Z,50.23
2019-01-31T02:07:40.163Z,45.83
2019-01-31T02:08:22.937Z,45.50
2019-01-31T02:09:09.761Z,43.90
2019-01-31T02:10:08.922Z,45.33
2019-01-31T02:10:57.647Z,43.70
2019-01-31T02:11:57.226Z,45.73
2019-01-31T02:13:17.269Z,45.23
2019-01-31T02:13:59.855Z,44.60
2019-01-31T02:15:10.064Z,47.10
2019-01-31T02:15:58.790Z,44.80
2019-01-31T02:17:01.936Z,47.33
2019-01-31T02:17:47.290Z,45.10
2019-01-31T02:18:24.229Z,43.93
2019-01-31T02:19:07.228Z,45.00
2019-01-31T02:20:09.414Z,48.20
2019-01-31T02:20:57.734Z,45.90
2019-01-31T02:22:03.849Z,46.10
2019-01-31T02:23:04.879Z,46.97
2019-01-31T02:23:50.591Z,42.33
2019-01-31T02:24:44.951Z,48.03
2019-01-31T02:25:21.851Z,46.27
2019-01-31T02:26:30.559Z,44.87
2019-01-31T02:27:28.876Z,45.73
2019-01-31T02:28:17.465Z,43.30
2019-01-31T02:29:00.168Z,45.07
2019-01-31T02:29:48.231Z,47.73
2019-01-31T02:30:27.929Z,46.23
2019-01-31T02:31:23.158Z,46.93
2019-01-31T02:32:14.665Z,45.83
2019-01-31T02:33:01.176Z,46.10
2019-01-31T02:33:55.904Z,46.23
2019-01-31T02:34:41.916Z,45.80
2019-01-31T02:35:27.873Z,47.00
2019-01-31T02:36:22.668Z,47.90
2019-01-31T02:36:59.584Z,49.40
2019-01-31T02:37:54.399Z,51.93
2019-01-31T02:38:46.247Z,49.43
2019-01-31T02:39:43.164Z,45.77
2019-01-31T02:40:44.761Z,42.93
2019-01-31T02:41:21.644Z,44.80
2019-01-31T02:42:16.356Z,46.10
2019-01-31T02:43:19.897Z,48.13
2019-01-31T02:44:02.613Z,44.43
2019-01-31T02:44:47.835Z,47.07
2019-01-31T02:45:48.699Z,46.63
2019-01-31T02:46:42.874Z,45.73
2019-01-31T02:47:31.855Z,44.33
2019-01-31T02:48:27.238Z,46.90
2019-01-31T02:49:24.524Z,45.03
2019-01-31T02:50:20.693Z,45.50
2019-01-31T02:51:15.566Z,43.30
2019-01-31T02:52:04.250Z,45.20
2019-01-31T02:53:13.433Z,45.33
2019-01-31T02:53:55.976Z,42.10
2019-01-31T02:54:47.736Z,46.37
2019-01-31T02:55:39.129Z,45.27
2019-01-31T02:56:15.958Z,44.70
2019-01-31T02:57:04.970Z,47.37
2019-01-31T02:58:04.522Z,47.67
2019-01-31T02:58:53.087Z,45.53
2019-01-31T02:59:55.685Z,45.77
2019-01-31T03:00:50.387Z,43.33
2019-01-31T03:01:52.768Z,42.60
2019-01-31T03:02:32.468Z,42.37
2019-01-31T03:03:09.364Z,42.67
2019-01-31T03:04:07.627Z,45.93
2019-01-31T03:04:45.595Z,45.63
2019-01-31T03:05:34.395Z,45.97
2019-01-31T03:06:11.215Z,46.97
2019-01-31T03:07:24.333Z,47.50
2019-01-31T03:08:16.094Z,44.23
2019-01-31T03:09:31.933Z,45.57
2019-01-31T03:10:23.957Z,40.40
2019-01-31T03:11:18.646Z,43.70
2019-01-31T03:12:01.991Z,44.97
2019-01-31T03:13:09.008Z,46.70
2019-01-31T03:13:54.705Z,43.77
2019-01-31T03:14:31.826Z,43.20
2019-01-31T03:15:17.613Z,46.77
2019-01-31T03:16:06.206Z,46.80
2019-01-31T03:16:57.876Z,44.33
2019-01-31T03:18:15.992Z,45.40
2019-01-31T03:18:58.762Z,45.43
2019-01-31T03:19:44.504Z,47.33
2019-01-31T03:20:29.746Z,49.13
2019-01-31T03:21:49.350Z,48.50
2019-01-31T03:22:28.712Z,45.87
2019-01-31T03:23:08.402Z,45.80
2019-01-31T03:23:50.835Z,45.40
2019-01-31T03:24:54.700Z,45.80
2019-01-31T03:25:43.121Z,42.57
2019-01-31T03:26:20.023Z,46.67
2019-01-31T03:27:05.721Z,46.77
2019-01-31T03:28:00.775Z,45.30
2019-01-31T03:29:18.207Z,47.20
2019-01-31T03:30:10.195Z,42.43
2019-01-31T03:31:24.719Z,44.87
2019-01-31T03:32:31.923Z,43.17
2019-01-31T03:33:48.371Z,41.93
2019-01-31T03:34:33.952Z,43.87
2019-01-31T03:35:22.479Z,45.60
2019-01-31T03:36:08.468Z,46.07
2019-01-31T03:37:06.107Z,46.37
2019-01-31T03:37:45.542Z,44.13
2019-01-31T03:38:22.469Z,47.57
2019-01-31T03:39:17.194Z,47.60
2019-01-31T03:40:38.082Z,44.83
2019-01-31T03:41:23.324Z,43.30
2019-01-31T03:42:11.597Z,45.47
2019-01-31T03:43:09.372Z,46.27
2019-01-31T03:43:58.563Z,46.97
2019-01-31T03:44:38.242Z,48.00
2019-01-31T03:45:29.518Z,48.70
2019-01-31T03:46:38.200Z,46.67
2019-01-31T03:47:22.994Z,41.50
2019-01-31T03:47:59.882Z,44.93
2019-01-31T03:49:05.201Z,45.93
2019-01-31T03:49:42.070Z,46.17
2019-01-31T03:50:21.983Z,47.63
2019-01-31T03:51:04.582Z,48.93
2019-01-31T03:51:47.102Z,46.60
2019-01-31T03:52:46.480Z,49.33
2019-01-31T03:53:43.996Z,46.90
2019-01-31T03:54:37.321Z,46.40
2019-01-31T03:55:40.457Z,45.13
2019-01-31T03:56:46.122Z,43.83
2019-01-31T03:57:41.931Z,42.83
2019-01-31T03:58:30.650Z,43.40
2019-01-31T03:59:10.935Z,44.77
2019-01-31T03:59:44.971Z,46.13
2019-01-31T04:00:39.216Z,44.97
2019-01-31T04:01:47.746Z,44.17
2019-01-31T04:02:27.614Z,44.37
2019-01-31T04:03:04.505Z,46.97
2019-01-31T04:03:56.061Z,50.00
2019-01-31T04:04:53.454Z,47.33
2019-01-31T04:05:39.202Z,47.63
2019-01-31T04:06:15.021Z,49.97
2019-01-31T04:06:46.230Z,46.13
2019-01-31T04:07:17.400Z,46.13
2019-01-31T04:07:48.580Z,47.00
2019-01-31T04:08:19.780Z,47.23
2019-01-31T04:08:50.973Z,46.90
2019-01-31T04:09:22.140Z,47.37
2019-01-31T04:09:53.330Z,45.87
2019-01-31T04:10:24.719Z,47.77
2019-01-31T04:10:55.898Z,46.40
2019-01-31T04:11:27.072Z,47.73
2019-01-31T04:11:58.557Z,48.40
2019-01-31T04:12:29.760Z,48.50
2019-01-31T04:13:00.945Z,48.53
2019-01-31T04:13:32.528Z,49.23
2019-01-31T04:14:03.775Z,48.90
2019-01-31T04:14:34.965Z,47.20
2019-01-31T04:15:08.457Z,46.63
2019-01-31T04:15:39.677Z,46.50
2019-01-31T04:16:10.858Z,48.17
2019-01-31T04:16:43.046Z,48.70
2019-01-31T04:17:14.224Z,48.57
2019-01-31T04:17:45.413Z,50.77
2019-01-31T04:18:16.647Z,50.20
2019-01-31T04:18:47.808Z,50.87
2019-01-31T04:19:19.039Z,50.10
2019-01-31T04:19:50.196Z,52.07
2019-01-31T04:20:21.452Z,53.10
2019-01-31T04:20:52.619Z,53.73
2019-01-31T04:21:23.820Z,51.83
2019-01-31T04:21:55.017Z,53.00
2019-01-31T04:22:26.330Z,51.47
2019-01-31T04:22:57.508Z,53.13
2019-01-31T04:23:29.088Z,53.80
2019-01-31T04:24:00.246Z,55.50
2019-01-31T04:24:31.823Z,47.80
2019-01-31T04:25:03.428Z,45.67
2019-01-31T04:25:34.650Z,45.17
2019-01-31T04:26:07.714Z,47.90
2019-01-31T04:26:38.931Z,46.63
2019-01-31T04:27:10.107Z,47.43
2019-01-31T04:27:41.322Z,46.40
2019-01-31T04:28:12.483Z,45.93
2019-01-31T04:28:43.707Z,46.33
2019-01-31T04:29:14.888Z,46.97
2019-01-31T04:29:46.119Z,48.23
2019-01-31T04:30:17.383Z,47.03
2019-01-31T04:30:48.595Z,46.80
2019-01-31T04:31:19.814Z,46.93
2019-01-31T04:31:51.050Z,45.43
2019-01-31T04:32:22.280Z,46.90
2019-01-31T04:32:54.238Z,46.23
2019-01-31T04:33:25.484Z,46.47
2019-01-31T04:33:56.762Z,47.30
2019-01-31T04:34:27.984Z,47.10
2019-01-31T04:34:59.127Z,46.87
2019-01-31T04:35:30.345Z,50.50
2019-01-31T04:36:01.910Z,49.57
2019-01-31T04:36:33.129Z,49.27
2019-01-31T04:37:04.287Z,51.50
2019-01-31T04:37:35.503Z,52.23
2019-01-31T04:38:06.674Z,51.10
2019-01-31T04:38:37.883Z,52.10
2019-01-31T04:39:09.049Z,53.97
2019-01-31T04:39:40.251Z,54.67
2019-01-31T04:40:11.514Z,57.73
2019-01-31T04:40:42.715Z,51.20
2019-01-31T04:41:13.865Z,52.47
2019-01-31T04:41:46.083Z,51.60
2019-01-31T04:42:17.253Z,52.03
2019-01-31T04:42:48.495Z,53.37
2019-01-31T04:43:19.735Z,56.30
2019-01-31T04:43:50.931Z,59.00
2019-01-31T04:44:22.109Z,54.57
2019-01-31T04:44:53.348Z,54.97
2019-01-31T04:45:24.605Z,48.40
2019-01-31T04:45:55.879Z,51.37
2019-01-31T04:46:27.123Z,50.07
2019-01-31T04:46:58.780Z,50.27
2019-01-31T04:47:30.019Z,47.70
2019-01-31T04:48:01.304Z,45.90
2019-01-31T04:48:32.524Z,46.70
2019-01-31T04:49:03.686Z,48.67
2019-01-31T04:49:34.912Z,46.63
2019-01-31T04:50:10.871Z,44.43
2019-01-31T04:50:42.073Z,44.70
2019-01-31T04:51:13.224Z,43.07
2019-01-31T04:51:44.430Z,45.90
2019-01-31T04:52:15.600Z,44.93
2019-01-31T04:52:46.817Z,47.13
2019-01-31T04:53:17.972Z,48.43
2019-01-31T04:53:49.167Z,48.00
2019-01-31T04:54:20.344Z,48.70
2019-01-31T04:54:51.568Z,48.50
2019-01-31T04:55:22.799Z,48.10
2019-01-31T04:55:54.009Z,49.43
2019-01-31T04:56:25.159Z,47.87
2019-01-31T04:56:56.359Z,49.80
2019-01-31T04:57:27.529Z,50.77
2019-01-31T04:57:58.753Z,47.77
2019-01-31T04:58:29.901Z,44.13
2019-01-31T04:59:01.106Z,43.10
2019-01-31T04:59:32.311Z,42.50
2019-01-31T05:00:16.064Z,42.43
2019-01-31T05:00:47.239Z,41.47
2019-01-31T05:01:18.416Z,44.30
2019-01-31T05:01:49.600Z,42.20
2019-01-31T05:02:20.781Z,44.07
2019-01-31T05:02:51.966Z,42.80
2019-01-31T05:03:23.141Z,44.40
2019-01-31T05:03:54.348Z,44.00
2019-01-31T05:04:25.533Z,43.10
2019-01-31T05:04:56.688Z,43.97
2019-01-31T05:05:27.914Z,43.23
2019-01-31T05:05:59.107Z,41.10
2019-01-31T05:06:30.298Z,43.60
2019-01-31T05:07:01.762Z,43.70
2019-01-31T05:07:32.948Z,42.13
2019-01-31T05:08:04.188Z,43.57
2019-01-31T05:08:35.357Z,44.57
2019-01-31T05:09:06.585Z,46.17
2019-01-31T05:09:37.826Z,44.50
2019-01-31T05:10:11.606Z,46.83
2019-01-31T05:10:43.531Z,46.57
2019-01-31T05:11:14.847Z,45.57
2019-01-31T05:11:46.103Z,46.30
2019-01-31T05:12:17.400Z,46.00
2019-01-31T05:12:48.671Z,46.83
2019-01-31T05:13:19.904Z,46.67
2019-01-31T05:13:51.159Z,48.37
2019-01-31T05:14:22.356Z,46.33
2019-01-31T05:14:53.617Z,47.40
2019-01-31T05:15:24.807Z,42.03
2019-01-31T05:15:56.067Z,41.37
2019-01-31T05:16:27.318Z,43.30
2019-01-31T05:16:58.744Z,42.33
2019-01-31T05:17:29.934Z,41.27
2019-01-31T05:18:01.165Z,41.27
2019-01-31T05:18:32.358Z,41.67
2019-01-31T05:19:03.604Z,41.47
2019-01-31T05:19:34.775Z,42.80
2019-01-31T05:20:13.408Z,42.10
2019-01-31T05:20:44.609Z,41.03
2019-01-31T05:21:15.881Z,42.10
2019-01-31T05:21:47.061Z,42.13
2019-01-31T05:22:18.291Z,42.17
2019-01-31T05:22:49.483Z,41.80
2019-01-31T05:23:20.718Z,41.80
2019-01-31T05:23:51.915Z,41.60
2019-01-31T05:24:23.139Z,42.07
2019-01-31T05:24:55.368Z,41.07
2019-01-31T05:25:26.608Z,43.47
2019-01-31T05:25:57.817Z,42.83
2019-01-31T05:26:29.303Z,43.73
2019-01-31T05:27:00.542Z,45.90
2019-01-31T05:27:31.862Z,43.80
2019-01-31T05:28:03.112Z,45.83
2019-01-31T05:28:34.316Z,46.30
2019-01-31T05:29:05.512Z,45.27
2019-01-31T05:29:36.708Z,46.40
2019-01-31T05:30:14.036Z,45.83
2019-01-31T05:30:45.239Z,44.97
2019-01-31T05:31:16.446Z,43.00
2019-01-31T05:31:47.674Z,42.53
2019-01-31T05:32:18.935Z,40.53
2019-01-31T05:32:50.101Z,41.13
2019-01-31T05:33:21.276Z,41.20
2019-01-31T05:33:52.464Z,41.73
2019-01-31T05:34:23.658Z,42.53
2019-01-31T05:34:54.887Z,40.93
2019-01-31T05:35:26.046Z,41.73
2019-01-31T05:35:57.268Z,42.37
2019-01-31T05:36:28.433Z,42.60
2019-01-31T05:36:59.710Z,42.47
2019-01-31T05:37:30.876Z,41.57
2019-01-31T05:38:02.533Z,41.43
2019-01-31T05:38:33.695Z,43.10
2019-01-31T05:39:06.517Z,42.37
2019-01-31T05:39:37.673Z,41.40
2019-01-31T05:40:12.479Z,42.07
2019-01-31T05:40:54.398Z,41.27
2019-01-31T05:41:16.755Z,40.77
2019-01-31T05:41:47.913Z,43.13
2019-01-31T05:42:19.128Z,42.63
2019-01-31T05:42:50.279Z,43.17
2019-01-31T05:43:21.496Z,44.17
2019-01-31T05:43:52.662Z,44.77
2019-01-31T05:44:23.885Z,45.17
2019-01-31T05:44:55.047Z,47.30
2019-01-31T05:45:26.258Z,45.93
2019-01-31T05:45:57.424Z,47.00
2019-01-31T05:46:28.770Z,47.10
2019-01-31T05:46:59.920Z,46.93
2019-01-31T05:47:31.621Z,43.97
2019-01-31T05:48:02.792Z,39.27
2019-01-31T05:48:33.994Z,40.97
2019-01-31T05:49:05.187Z,39.60
2019-01-31T05:49:36.406Z,39.80
2019-01-31T05:50:11.278Z,40.73
2019-01-31T05:50:42.459Z,40.90
2019-01-31T05:51:13.655Z,42.33
2019-01-31T05:51:44.847Z,43.30
2019-01-31T05:52:16.063Z,44.37
2019-01-31T05:52:47.237Z,43.57
2019-01-31T05:53:18.434Z,46.87
2019-01-31T05:53:49.616Z,45.47
2019-01-31T05:54:20.789Z,44.83
2019-01-31T05:54:51.963Z,48.53
2019-01-31T05:55:23.158Z,49.20
2019-01-31T05:55:54.337Z,48.93
2019-01-31T05:56:25.532Z,48.70
2019-01-31T05:56:56.749Z,50.03
2019-01-31T05:57:27.925Z,50.37
2019-01-31T05:57:59.210Z,49.53
2019-01-31T05:58:30.399Z,49.10
2019-01-31T05:59:01.823Z,48.23
2019-01-31T05:59:33.010Z,49.63
2019-01-31T06:00:15.593Z,50.03
2019-01-31T06:00:46.899Z,47.73
2019-01-31T06:01:18.296Z,51.10
2019-01-31T06:01:49.557Z,52.40
2019-01-31T06:02:20.803Z,48.60
2019-01-31T06:02:52.063Z,48.50
2019-01-31T06:03:23.289Z,48.33
2019-01-31T06:03:54.544Z,47.63
2019-01-31T06:04:25.781Z,43.53
2019-01-31T06:04:57.014Z,42.23
2019-01-31T06:05:28.673Z,41.80
2019-01-31T06:05:59.827Z,42.93
2019-01-31T06:06:31.027Z,42.80
2019-01-31T06:07:10.920Z,44.07
2019-01-31T06:07:35.330Z,43.97
2019-01-31T06:08:06.521Z,43.77
2019-01-31T06:08:37.692Z,44.63
2019-01-31T06:09:08.891Z,45.00
2019-01-31T06:09:40.051Z,45.77
2019-01-31T06:10:11.757Z,46.80
2019-01-31T06:10:42.931Z,43.70
2019-01-31T06:11:14.115Z,43.73
2019-01-31T06:11:45.296Z,43.47
2019-01-31T06:12:16.477Z,45.50
2019-01-31T06:12:47.681Z,44.87
2019-01-31T06:13:18.871Z,45.03
2019-01-31T06:13:50.072Z,44.63
2019-01-31T06:14:21.258Z,46.03
2019-01-31T06:14:52.442Z,47.43
2019-01-31T06:15:23.653Z,46.80
2019-01-31T06:15:54.805Z,46.60
2019-01-31T06:16:26.044Z,47.70
2019-01-31T06:16:57.180Z,47.77
2019-01-31T06:17:28.808Z,69.13
2019-01-31T06:17:59.963Z,53.83
2019-01-31T06:18:31.639Z,61.93
2019-01-31T06:19:02.797Z,63.33
2019-01-31T06:19:34.023Z,56.47
2019-01-31T06:20:08.996Z,55.30
2019-01-31T06:20:40.199Z,48.83
2019-01-31T06:21:11.358Z,46.03
2019-01-31T06:21:42.586Z,45.70
2019-01-31T06:22:13.731Z,47.93
2019-01-31T06:22:44.941Z,45.87
2019-01-31T06:23:16.104Z,46.90
2019-01-31T06:23:47.317Z,45.13
2019-01-31T06:24:18.471Z,46.67
2019-01-31T06:24:49.698Z,46.63
2019-01-31T06:25:20.841Z,46.53
2019-01-31T06:25:52.073Z,46.70
2019-01-31T06:26:23.233Z,45.20
2019-01-31T06:26:54.439Z,44.90
2019-01-31T06:27:25.600Z,43.77
2019-01-31T06:27:56.799Z,45.33
2019-01-31T06:28:27.955Z,43.30
2019-01-31T06:28:59.519Z,42.20
2019-01-31T06:29:31.833Z,46.37
2019-01-31T06:30:08.243Z,45.17
2019-01-31T06:30:39.412Z,43.90
2019-01-31T06:31:10.664Z,45.67
2019-01-31T06:31:41.904Z,45.87
2019-01-31T06:32:13.140Z,47.43
2019-01-31T06:32:44.483Z,45.80
2019-01-31T06:33:15.736Z,46.30
2019-01-31T06:33:46.983Z,46.37
2019-01-31T06:34:18.225Z,47.73
2019-01-31T06:34:49.474Z,47.43
2019-01-31T06:35:20.728Z,47.37
2019-01-31T06:35:51.970Z,47.90
2019-01-31T06:36:23.300Z,47.93
2019-01-31T06:36:54.523Z,48.30
2019-01-31T06:37:25.684Z,44.07
2019-01-31T06:37:56.904Z,43.23
2019-01-31T06:38:28.063Z,42.67
2019-01-31T06:38:59.600Z,38.70
2019-01-31T06:39:30.749Z,41.63
2019-01-31T06:40:09.531Z,43.10
2019-01-31T06:40:40.721Z,43.37
2019-01-31T06:41:18.236Z,45.33
2019-01-31T06:41:45.112Z,42.90
2019-01-31T06:42:16.361Z,43.60
2019-01-31T06:42:47.822Z,43.57
2019-01-31T06:43:19.058Z,47.37
2019-01-31T06:43:50.319Z,45.27
2019-01-31T06:44:21.555Z,47.37
2019-01-31T06:44:52.815Z,48.20
2019-01-31T06:45:25.069Z,46.10
2019-01-31T06:45:56.469Z,47.60
2019-01-31T06:46:27.646Z,49.70
2019-01-31T06:46:59.408Z,50.90
2019-01-31T06:47:30.574Z,54.87
2019-01-31T06:48:05.032Z,57.10
2019-01-31T06:48:35.226Z,57.63
2019-01-31T06:49:06.436Z,59.83
2019-01-31T06:49:37.624Z,60.87
2019-01-31T06:50:08.766Z,58.13
2019-01-31T06:50:39.920Z,59.33
2019-01-31T06:51:11.108Z,57.10
2019-01-31T06:51:42.301Z,53.87
2019-01-31T06:52:13.445Z,54.57
2019-01-31T06:52:44.612Z,54.73
2019-01-31T06:53:15.757Z,56.27
2019-01-31T06:53:46.937Z,52.43
2019-01-31T06:54:18.115Z,51.90
2019-01-31T06:54:49.289Z,47.50
2019-01-31T06:55:20.467Z,44.57
2019-01-31T06:55:51.671Z,44.33
2019-01-31T06:56:22.831Z,46.20
2019-01-31T06:56:53.982Z,44.73
2019-01-31T06:57:25.166Z,45.17
2019-01-31T06:57:56.323Z,43.40
2019-01-31T06:58:27.495Z,43.77
2019-01-31T06:58:58.877Z,44.80
2019-01-31T06:59:30.042Z,44.13
2019-01-31T07:00:01.195Z,43.30
2019-01-31T07:00:32.368Z,42.33
2019-01-31T07:01:03.554Z,42.97
2019-01-31T07:01:34.698Z,40.83
2019-01-31T07:02:05.928Z,44.40
2019-01-31T07:02:37.076Z,42.87
2019-01-31T07:03:08.290Z,43.23
2019-01-31T07:03:39.478Z,45.17
2019-01-31T07:04:11.152Z,47.23
2019-01-31T07:04:42.347Z,48.37
2019-01-31T07:05:13.560Z,48.97
2019-01-31T07:05:44.732Z,49.93
2019-01-31T07:06:15.974Z,52.17
2019-01-31T07:06:47.118Z,53.73
2019-01-31T07:07:18.406Z,54.73
2019-01-31T07:07:49.671Z,59.63
2019-01-31T07:08:20.931Z,61.40
2019-01-31T07:08:52.187Z,64.73
2019-01-31T07:09:23.429Z,67.70
2019-01-31T07:09:54.785Z,73.03
2019-01-31T07:10:26.043Z,71.10
2019-01-31T07:10:57.290Z,63.83
2019-01-31T07:11:30.033Z,69.97
2019-01-31T07:12:02.000Z,65.53
2019-01-31T07:12:33.193Z,66.03
2019-01-31T07:13:04.357Z,65.37
2019-01-31T07:13:35.557Z,67.80
2019-01-31T07:14:06.734Z,68.00
2019-01-31T07:14:37.935Z,68.97
2019-01-31T07:15:10.709Z,70.63
2019-01-31T07:15:41.906Z,69.40
2019-01-31T07:16:13.086Z,70.33
2019-01-31T07:16:45.334Z,72.13
2019-01-31T07:17:18.354Z,79.50
2019-01-31T07:17:49.719Z,78.87
2019-01-31T07:18:20.934Z,80.87
2019-01-31T07:18:52.171Z,82.73
2019-01-31T07:19:23.376Z,85.00
2019-01-31T07:19:56.547Z,81.57
2019-01-31T07:20:27.680Z,82.33
2019-01-31T07:20:58.893Z,85.73
2019-01-31T07:21:30.073Z,80.40
2019-01-31T07:22:01.279Z,76.20
2019-01-31T07:22:32.466Z,79.17
2019-01-31T07:23:03.863Z,81.20
2019-01-31T07:23:35.057Z,79.83
2019-01-31T07:24:06.234Z,83.00
2019-01-31T07:24:37.416Z,81.70
2019-01-31T07:25:18.529Z,86.00
2019-01-31T07:25:49.798Z,86.50
2019-01-31T07:26:22.713Z,89.90
2019-01-31T07:26:54.011Z,93.13
2019-01-31T07:27:25.271Z,99.47
2019-01-31T07:27:56.427Z,96.60
2019-01-31T07:28:27.633Z,95.13
2019-01-31T07:28:59.151Z,97.73
2019-01-31T07:29:30.369Z,100.87
2019-01-31T07:30:01.639Z,99.03
2019-01-31T07:30:32.846Z,102.47
2019-01-31T07:31:04.103Z,103.60
2019-01-31T07:31:35.334Z,112.47
2019-01-31T07:32:06.512Z,120.13
2019-01-31T07:32:37.727Z,120.13
2019-01-31T07:33:08.884Z,116.30
2019-01-31T07:33:40.107Z,116.57
2019-01-31T07:34:11.277Z,107.20
2019-01-31T07:34:42.523Z,115.93
2019-01-31T07:35:13.943Z,124.83
2019-01-31T07:35:45.176Z,124.30
2019-01-31T07:36:16.407Z,119.57
2019-01-31T07:36:47.628Z,116.73
2019-01-31T07:37:18.795Z,111.10
2019-01-31T07:37:52.916Z,114.00
2019-01-31T07:38:23.073Z,104.23
2019-01-31T07:38:54.404Z,97.37
2019-01-31T07:39:25.655Z,95.43
2019-01-31T07:39:56.855Z,83.73
2019-01-31T07:40:28.024Z,74.37
2019-01-31T07:40:59.391Z,70.70
2019-01-31T07:41:40.656Z,73.73
2019-01-31T07:42:03.748Z,69.47
2019-01-31T07:42:34.989Z,70.57
2019-01-31T07:43:06.224Z,73.03
2019-01-31T07:43:37.449Z,76.50
2019-01-31T07:44:08.691Z,69.60
2019-01-31T07:44:39.920Z,71.50
2019-01-31T07:45:21.526Z,67.63
2019-01-31T07:45:52.780Z,66.73
2019-01-31T07:46:24.026Z,67.80
2019-01-31T07:46:55.250Z,67.23
2019-01-31T07:47:26.402Z,70.17
2019-01-31T07:47:57.602Z,70.67
2019-01-31T07:48:28.781Z,70.07
2019-01-31T07:49:00.030Z,67.17
2019-01-31T07:49:31.186Z,62.50
2019-01-31T07:50:10.882Z,62.37
2019-01-31T07:50:42.041Z,62.27
2019-01-31T07:51:13.286Z,62.90
2019-01-31T07:51:44.459Z,60.17
2019-01-31T07:52:15.888Z,57.33
2019-01-31T07:52:47.321Z,58.60
2019-01-31T07:53:18.571Z,58.80
2019-01-31T07:53:49.812Z,58.00
2019-01-31T07:54:21.049Z,59.27
2019-01-31T07:54:52.327Z,58.93
2019-01-31T07:55:23.565Z,58.73
2019-01-31T07:55:54.805Z,58.97
2019-01-31T07:56:26.070Z,59.37
2019-01-31T07:56:57.296Z,58.77
2019-01-31T07:57:28.756Z,58.70
2019-01-31T07:58:00.679Z,60.53
2019-01-31T07:58:31.982Z,60.47
2019-01-31T07:59:03.233Z,59.80
2019-01-31T07:59:34.397Z,61.23
2019-01-31T08:00:23.584Z,57.50
2019-01-31T08:00:54.739Z,48.67
2019-01-31T08:01:25.966Z,49.27
2019-01-31T08:01:57.166Z,47.70
2019-01-31T08:02:28.814Z,45.77
2019-01-31T08:03:00.078Z,44.63
2019-01-31T08:03:31.850Z,44.27
2019-01-31T08:04:03.418Z,44.13
2019-01-31T08:04:34.677Z,43.73
2019-01-31T08:05:10.956Z,43.63
2019-01-31T08:05:42.334Z,45.20
2019-01-31T08:06:13.585Z,45.90
2019-01-31T08:06:44.867Z,46.97
2019-01-31T08:07:16.121Z,46.37
2019-01-31T08:07:48.150Z,47.03
2019-01-31T08:08:19.408Z,47.57
2019-01-31T08:08:50.687Z,48.57
2019-01-31T08:09:21.868Z,49.00
2019-01-31T08:09:56.004Z,47.60
2019-01-31T08:10:34.183Z,49.40
2019-01-31T08:11:05.490Z,47.07
2019-01-31T08:11:36.673Z,46.27
2019-01-31T08:12:07.901Z,49.20
2019-01-31T08:12:39.073Z,50.07
2019-01-31T08:13:10.302Z,52.07
2019-01-31T08:13:41.459Z,49.00
2019-01-31T08:14:12.679Z,51.87
2019-01-31T08:14:43.830Z,49.63
2019-01-31T08:15:17.566Z,49.50
2019-01-31T08:15:49.721Z,50.77
2019-01-31T08:16:20.932Z,50.53
2019-01-31T08:16:52.123Z,47.40
2019-01-31T08:17:23.373Z,49.00
2019-01-31T08:17:54.642Z,44.00
2019-01-31T08:18:26.901Z,44.33
2019-01-31T08:18:58.158Z,43.47
2019-01-31T08:19:29.447Z,41.87
2019-01-31T08:20:00.641Z,42.13
2019-01-31T08:20:31.994Z,42.20
2019-01-31T08:21:03.162Z,42.13
2019-01-31T08:21:34.388Z,42.17
2019-01-31T08:22:05.598Z,43.27
2019-01-31T08:22:36.788Z,42.87
2019-01-31T08:23:08.010Z,43.60
2019-01-31T08:23:39.261Z,42.83
2019-01-31T08:24:10.455Z,43.20
2019-01-31T08:24:41.649Z,44.80
2019-01-31T08:25:20.599Z,45.73